sensor_id;sensor_type;location;lat;lon;timestamp;pressure;altitude;pressure_sealevel;temperature;humidity
19594;BME280;9944;48.240;16.478;2022-10-16T00:00:21;100027.19;;;12.42;86.51
19594;BME280;9944;48.240;16.478;2022-10-16T00:04:25;100021.94;;;12.36;86.63
19594;BME280;9944;48.240;16.478;2022-10-16T00:08:28;100019.31;;;12.32;86.69
19594;BME280;9944;48.240;16.478;2022-10-16T00:12:31;100011.41;;;12.29;86.70
19594;BME280;9944;48.240;16.478;2022-10-16T00:16:35;100024.63;;;12.28;86.52
19594;BME280;9944;48.240;16.478;2022-10-16T00:20:39;100027.28;;;12.26;86.76
19594;BME280;9944;48.240;16.478;2022-10-16T00:24:42;100028.19;;;12.27;87.00
19594;BME280;9944;48.240;16.478;2022-10-16T00:28:45;100036.16;;;12.22;86.42
19594;BME280;9944;48.240;16.478;2022-10-16T00:32:50;100041.47;;;12.19;86.33
19594;BME280;9944;48.240;16.478;2022-10-16T00:36:53;100035.31;;;12.14;86.24
19594;BME280;9944;48.240;16.478;2022-10-16T00:40:57;100037.97;;;12.11;86.01
19594;BME280;9944;48.240;16.478;2022-10-16T00:45:00;100037.13;;;12.07;86.10
19594;BME280;9944;48.240;16.478;2022-10-16T00:49:07;100044.19;;;12.04;85.99
19594;BME280;9944;48.240;16.478;2022-10-16T00:53:11;100045.09;;;12.03;85.96
19594;BME280;9944;48.240;16.478;2022-10-16T00:57:14;100042.47;;;12.01;86.34
19594;BME280;9944;48.240;16.478;2022-10-16T01:01:18;100048.63;;;12.02;86.05
19594;BME280;9944;48.240;16.478;2022-10-16T01:05:24;100053.03;;;12.01;85.91
19594;BME280;9944;48.240;16.478;2022-10-16T01:09:35;100056.56;;;11.97;85.84
19594;BME280;9944;48.240;16.478;2022-10-16T01:13:42;100045.13;;;11.93;85.41
19594;BME280;9944;48.240;16.478;2022-10-16T01:17:52;100039.88;;;11.87;85.62
19594;BME280;9944;48.240;16.478;2022-10-16T01:21:58;100033.75;;;11.84;85.35
19594;BME280;9944;48.240;16.478;2022-10-16T01:26:14;100028.47;;;11.81;85.40
19594;BME280;9944;48.240;16.478;2022-10-16T01:30:26;100041.69;;;11.74;85.23
19594;BME280;9944;48.240;16.478;2022-10-16T01:34:35;100047.03;;;11.67;84.72
19594;BME280;9944;48.240;16.478;2022-10-16T01:38:40;100036.47;;;11.61;84.50
19594;BME280;9944;48.240;16.478;2022-10-16T01:42:48;100043.53;;;11.55;84.37
19594;BME280;9944;48.240;16.478;2022-10-16T01:46:54;100034.75;;;11.50;84.37
19594;BME280;9944;48.240;16.478;2022-10-16T01:51:02;100043.59;;;11.46;84.21
19594;BME280;9944;48.240;16.478;2022-10-16T01:55:08;100035.66;;;11.42;84.34
19594;BME280;9944;48.240;16.478;2022-10-16T01:59:16;100045.38;;;11.38;84.49
19594;BME280;9944;48.240;16.478;2022-10-16T02:03:22;100042.75;;;11.35;84.13
19594;BME280;9944;48.240;16.478;2022-10-16T02:07:26;100047.13;;;11.30;83.99
19594;BME280;9944;48.240;16.478;2022-10-16T02:11:29;100045.38;;;11.26;84.27
19594;BME280;9944;48.240;16.478;2022-10-16T02:15:33;100048.91;;;11.23;84.04
19594;BME280;9944;48.240;16.478;2022-10-16T02:19:38;100044.50;;;11.21;84.13
19594;BME280;9944;48.240;16.478;2022-10-16T02:23:45;100047.13;;;11.17;84.28
19594;BME280;9944;48.240;16.478;2022-10-16T02:27:56;100049.78;;;11.17;84.67
19594;BME280;9944;48.240;16.478;2022-10-16T02:32:02;100052.41;;;11.21;85.32
19594;BME280;9944;48.240;16.478;2022-10-16T02:36:09;100064.75;;;11.22;85.35
19594;BME280;9944;48.240;16.478;2022-10-16T02:40:13;100062.13;;;11.23;85.16
19594;BME280;9944;48.240;16.478;2022-10-16T02:44:20;100064.75;;;11.25;85.34
19594;BME280;9944;48.240;16.478;2022-10-16T02:48:23;100057.72;;;11.27;85.37
19594;BME280;9944;48.240;16.478;2022-10-16T02:52:27;100071.78;;;11.29;85.53
19594;BME280;9944;48.240;16.478;2022-10-16T02:56:30;100077.06;;;11.29;85.51
19594;BME280;9944;48.240;16.478;2022-10-16T03:00:34;100082.38;;;11.30;85.54
19594;BME280;9944;48.240;16.478;2022-10-16T03:04:37;100079.72;;;11.27;85.58
19594;BME280;9944;48.240;16.478;2022-10-16T03:08:42;100073.56;;;11.24;85.53
19594;BME280;9944;48.240;16.478;2022-10-16T03:12:45;100081.50;;;11.22;85.67
19594;BME280;9944;48.240;16.478;2022-10-16T03:16:48;100071.81;;;11.21;85.50
19594;BME280;9944;48.240;16.478;2022-10-16T03:20:51;100069.19;;;11.16;85.17
19594;BME280;9944;48.240;16.478;2022-10-16T03:24:56;100077.97;;;11.15;85.56
19594;BME280;9944;48.240;16.478;2022-10-16T03:28:59;100082.38;;;11.13;85.80
19594;BME280;9944;48.240;16.478;2022-10-16T03:33:04;100077.09;;;11.13;85.84
19594;BME280;9944;48.240;16.478;2022-10-16T03:37:07;100078.88;;;11.14;86.43
19594;BME280;9944;48.240;16.478;2022-10-16T03:41:11;100091.19;;;11.15;85.76
19594;BME280;9944;48.240;16.478;2022-10-16T03:45:14;100094.72;;;11.11;85.84
19594;BME280;9944;48.240;16.478;2022-10-16T03:49:18;100101.78;;;11.09;85.63
19594;BME280;9944;48.240;16.478;2022-10-16T03:53:21;100112.34;;;11.09;85.94
19594;BME280;9944;48.240;16.478;2022-10-16T03:57:25;100116.72;;;11.09;85.56
19594;BME280;9944;48.240;16.478;2022-10-16T04:01:29;100116.75;;;11.06;85.17
19594;BME280;9944;48.240;16.478;2022-10-16T04:05:33;100114.09;;;11.01;85.19
19594;BME280;9944;48.240;16.478;2022-10-16T04:09:36;100109.72;;;10.98;85.05
19594;BME280;9944;48.240;16.478;2022-10-16T04:13:40;100118.50;;;10.97;85.16
19594;BME280;9944;48.240;16.478;2022-10-16T04:17:43;100103.53;;;10.95;85.08
19594;BME280;9944;48.240;16.478;2022-10-16T04:21:46;100096.50;;;10.91;85.30
19594;BME280;9944;48.240;16.478;2022-10-16T04:25:51;100104.41;;;10.89;85.72
19594;BME280;9944;48.240;16.478;2022-10-16T04:29:55;100118.53;;;10.87;85.69
19594;BME280;9944;48.240;16.478;2022-10-16T04:33:58;100129.06;;;10.84;85.61
19594;BME280;9944;48.240;16.478;2022-10-16T04:38:01;100130.84;;;10.81;85.56
19594;BME280;9944;48.240;16.478;2022-10-16T04:42:04;100129.97;;;10.79;85.79
19594;BME280;9944;48.240;16.478;2022-10-16T04:46:09;100127.31;;;10.76;85.96
19594;BME280;9944;48.240;16.478;2022-10-16T04:50:12;100136.97;;;10.77;86.06
19594;BME280;9944;48.240;16.478;2022-10-16T04:54:32;100152.84;;;10.80;86.15
19594;BME280;9944;48.240;16.478;2022-10-16T04:58:35;100139.63;;;10.80;86.25
19594;BME280;9944;48.240;16.478;2022-10-16T05:02:40;100130.84;;;10.80;86.51
19594;BME280;9944;48.240;16.478;2022-10-16T05:06:43;100143.16;;;10.82;86.38
19594;BME280;9944;48.240;16.478;2022-10-16T05:10:46;100144.91;;;10.82;87.13
19594;BME280;9944;48.240;16.478;2022-10-16T05:14:49;100141.41;;;10.83;87.09
19594;BME280;9944;48.240;16.478;2022-10-16T05:18:54;100153.72;;;10.87;87.41
19594;BME280;9944;48.240;16.478;2022-10-16T05:23:17;100151.97;;;10.91;88.20
19594;BME280;9944;48.240;16.478;2022-10-16T05:27:21;100168.69;;;10.96;88.23
19594;BME280;9944;48.240;16.478;2022-10-16T05:31:24;100159.88;;;11.00;88.62
19594;BME280;9944;48.240;16.478;2022-10-16T05:35:28;100171.34;;;11.02;88.68
19594;BME280;9944;48.240;16.478;2022-10-16T05:39:32;100179.25;;;11.05;88.90
19594;BME280;9944;48.240;16.478;2022-10-16T05:43:35;100173.09;;;11.05;88.50
19594;BME280;9944;48.240;16.478;2022-10-16T05:47:38;100184.53;;;11.05;88.68
19594;BME280;9944;48.240;16.478;2022-10-16T05:51:42;100181.91;;;11.05;89.09
19594;BME280;9944;48.240;16.478;2022-10-16T05:55:51;100192.47;;;11.05;89.42
19594;BME280;9944;48.240;16.478;2022-10-16T05:59:55;100201.28;;;11.09;89.29
19594;BME280;9944;48.240;16.478;2022-10-16T06:03:58;100204.81;;;11.08;89.71
19594;BME280;9944;48.240;16.478;2022-10-16T06:08:03;100198.63;;;11.09;89.76
19594;BME280;9944;48.240;16.478;2022-10-16T06:12:07;100214.50;;;11.10;90.03
19594;BME280;9944;48.240;16.478;2022-10-16T06:16:10;100223.31;;;11.12;90.01
19594;BME280;9944;48.240;16.478;2022-10-16T06:20:13;100224.19;;;11.17;90.43
19594;BME280;9944;48.240;16.478;2022-10-16T06:24:18;100231.25;;;11.20;90.39
19594;BME280;9944;48.240;16.478;2022-10-16T06:28:21;100240.06;;;11.24;90.54
19594;BME280;9944;48.240;16.478;2022-10-16T06:32:24;100247.09;;;11.31;91.19
19594;BME280;9944;48.240;16.478;2022-10-16T06:36:27;100252.44;;;11.39;91.23
19594;BME280;9944;48.240;16.478;2022-10-16T06:40:33;100254.19;;;11.46;91.39
19594;BME280;9944;48.240;16.478;2022-10-16T06:44:36;100258.59;;;11.48;91.17
19594;BME280;9944;48.240;16.478;2022-10-16T06:48:39;100268.31;;;11.49;91.15
19594;BME280;9944;48.240;16.478;2022-10-16T06:52:42;100257.72;;;11.49;91.38
19594;BME280;9944;48.240;16.478;2022-10-16T06:56:47;100263.00;;;11.51;91.88
19594;BME280;9944;48.240;16.478;2022-10-16T07:00:55;100265.66;;;11.49;91.85
19594;BME280;9944;48.240;16.478;2022-10-16T07:04:59;100287.69;;;11.51;91.78
19594;BME280;9944;48.240;16.478;2022-10-16T07:09:04;100299.16;;;11.56;92.03
19594;BME280;9944;48.240;16.478;2022-10-16T07:13:09;100295.59;;;11.61;91.76
19594;BME280;9944;48.240;16.478;2022-10-16T07:17:14;100299.16;;;11.63;91.71
19594;BME280;9944;48.240;16.478;2022-10-16T07:21:19;100299.13;;;11.66;91.86
19594;BME280;9944;48.240;16.478;2022-10-16T07:25:23;100293.84;;;11.69;91.92
19594;BME280;9944;48.240;16.478;2022-10-16T07:29:27;100292.09;;;11.71;91.54
19594;BME280;9944;48.240;16.478;2022-10-16T07:33:30;100295.59;;;11.73;91.70
19594;BME280;9944;48.240;16.478;2022-10-16T07:37:34;100297.34;;;11.82;92.05
19594;BME280;9944;48.240;16.478;2022-10-16T07:41:37;100292.94;;;11.90;92.36
19594;BME280;9944;48.240;16.478;2022-10-16T07:45:47;100294.69;;;11.99;92.52
19594;BME280;9944;48.240;16.478;2022-10-16T07:49:56;100295.56;;;12.02;92.00
19594;BME280;9944;48.240;16.478;2022-10-16T07:53:59;100303.50;;;12.02;92.00
19594;BME280;9944;48.240;16.478;2022-10-16T07:58:04;100311.44;;;12.01;92.10
19594;BME280;9944;48.240;16.478;2022-10-16T08:02:08;100307.94;;;12.02;91.82
19594;BME280;9944;48.240;16.478;2022-10-16T08:06:12;100316.75;;;12.04;91.74
19594;BME280;9944;48.240;16.478;2022-10-16T08:10:17;100321.13;;;12.09;91.76
19594;BME280;9944;48.240;16.478;2022-10-16T08:14:20;100329.97;;;12.13;91.60
19594;BME280;9944;48.240;16.478;2022-10-16T08:18:25;100337.91;;;12.16;91.47
19594;BME280;9944;48.240;16.478;2022-10-16T08:22:28;100336.13;;;12.21;91.46
19594;BME280;9944;48.240;16.478;2022-10-16T08:26:31;100335.25;;;12.22;91.37
19594;BME280;9944;48.240;16.478;2022-10-16T08:30:34;100343.19;;;12.25;90.77
19594;BME280;9944;48.240;16.478;2022-10-16T08:34:39;100348.47;;;12.28;90.88
19594;BME280;9944;48.240;16.478;2022-10-16T08:38:42;100351.97;;;12.34;91.00
19594;BME280;9944;48.240;16.478;2022-10-16T08:42:53;100353.75;;;12.38;90.95
19594;BME280;9944;48.240;16.478;2022-10-16T08:47:09;100354.59;;;12.47;90.89
19594;BME280;9944;48.240;16.478;2022-10-16T08:51:22;100352.84;;;12.49;90.54
19594;BME280;9944;48.240;16.478;2022-10-16T08:55:31;100354.59;;;12.55;90.60
19594;BME280;9944;48.240;16.478;2022-10-16T08:59:36;100351.06;;;12.59;90.40
19594;BME280;9944;48.240;16.478;2022-10-16T09:08:24;100350.16;;;12.76;90.70
19594;BME280;9944;48.240;16.478;2022-10-16T09:12:37;100358.06;;;12.83;90.88
19594;BME280;9944;48.240;16.478;2022-10-16T09:16:47;100355.34;;;12.94;90.71
19594;BME280;9944;48.240;16.478;2022-10-16T09:21:00;100362.38;;;13.04;90.53
19594;BME280;9944;48.240;16.478;2022-10-16T09:25:11;100369.38;;;13.21;90.34
19594;BME280;9944;48.240;16.478;2022-10-16T09:29:16;100366.66;;;13.36;90.11
19594;BME280;9944;48.240;16.478;2022-10-16T09:33:25;100367.44;;;13.51;89.90
19594;BME280;9944;48.240;16.478;2022-10-16T09:37:30;100378.81;;;13.63;89.49
19594;BME280;9944;48.240;16.478;2022-10-16T09:41:36;100385.84;;;13.80;89.70
19594;BME280;9944;48.240;16.478;2022-10-16T09:45:40;100379.50;;;13.95;89.40
19594;BME280;9944;48.240;16.478;2022-10-16T09:49:51;100386.50;;;14.05;88.87
19594;BME280;9944;48.240;16.478;2022-10-16T09:53:56;100389.94;;;14.18;88.58
19594;BME280;9944;48.240;16.478;2022-10-16T09:58:01;100381.91;;;14.26;87.49
19594;BME280;9944;48.240;16.478;2022-10-16T10:02:11;100378.28;;;14.31;87.55
19594;BME280;9944;48.240;16.478;2022-10-16T10:06:19;100370.19;;;14.45;87.65
19594;BME280;9944;48.240;16.478;2022-10-16T10:10:26;100375.41;;;14.54;87.13
19594;BME280;9944;48.240;16.478;2022-10-16T10:14:35;100385.94;;;14.64;86.89
19594;BME280;9944;48.240;16.478;2022-10-16T10:18:38;100381.44;;;14.72;86.57
19594;BME280;9944;48.240;16.478;2022-10-16T10:22:43;100376.00;;;14.81;86.34
19594;BME280;9944;48.240;16.478;2022-10-16T10:26:52;100375.06;;;14.88;86.17
19594;BME280;9944;48.240;16.478;2022-10-16T10:31:03;100380.25;;;14.98;86.00
19594;BME280;9944;48.240;16.478;2022-10-16T10:35:15;100374.81;;;15.10;85.55
19594;BME280;9944;48.240;16.478;2022-10-16T10:39:23;100381.72;;;15.22;85.21
19594;BME280;9944;48.240;16.478;2022-10-16T10:43:39;100378.84;;;15.36;84.65
19594;BME280;9944;48.240;16.478;2022-10-16T10:47:58;100373.34;;;15.49;83.90
19594;BME280;9944;48.240;16.478;2022-10-16T10:52:16;100347.53;;;15.56;83.46
19594;BME280;9944;48.240;16.478;2022-10-16T10:56:39;100344.56;;;15.75;83.43
19594;BME280;9944;48.240;16.478;2022-10-16T11:00:53;100360.34;;;15.90;82.88
19594;BME280;9944;48.240;16.478;2022-10-16T11:05:25;100364.59;;;16.00;82.56
19594;BME280;9944;48.240;16.478;2022-10-16T11:09:32;100351.88;;;16.18;82.17
19594;BME280;9944;48.240;16.478;2022-10-16T11:13:39;100344.50;;;16.32;81.59
19594;BME280;9944;48.240;16.478;2022-10-16T11:17:48;100331.69;;;16.53;81.16
19594;BME280;9944;48.240;16.478;2022-10-16T11:21:59;100330.44;;;16.69;80.57
19594;BME280;9944;48.240;16.478;2022-10-16T11:26:08;100332.94;;;16.78;79.74
19594;BME280;9944;48.240;16.478;2022-10-16T11:30:16;100335.41;;;16.89;78.83
19594;BME280;9944;48.240;16.478;2022-10-16T11:34:25;100338.75;;;16.99;79.18
19594;BME280;9944;48.240;16.478;2022-10-16T11:38:43;100332.25;;;17.11;79.19
19594;BME280;9944;48.240;16.478;2022-10-16T11:42:53;100324.91;;;17.22;79.12
19594;BME280;9944;48.240;16.478;2022-10-16T11:47:03;100328.09;;;17.38;78.56
19594;BME280;9944;48.240;16.478;2022-10-16T11:51:33;100319.69;;;17.55;78.25
19594;BME280;9944;48.240;16.478;2022-10-16T11:55:41;100320.34;;;17.65;77.90
19594;BME280;9944;48.240;16.478;2022-10-16T11:59:52;100329.03;;;17.73;77.45
19594;BME280;9944;48.240;16.478;2022-10-16T12:04:05;100319.84;;;17.86;77.85
19594;BME280;9944;48.240;16.478;2022-10-16T12:08:11;100314.25;;;17.96;76.93
19594;BME280;9944;48.240;16.478;2022-10-16T12:12:27;100328.31;;;18.04;76.83
19594;BME280;9944;48.240;16.478;2022-10-16T12:16:37;100321.03;;;18.09;75.94
19594;BME280;9944;48.240;16.478;2022-10-16T12:20:40;100318.31;;;18.12;74.76
19594;BME280;9944;48.240;16.478;2022-10-16T12:24:51;100317.28;;;18.16;75.00
19594;BME280;9944;48.240;16.478;2022-10-16T12:29:08;100307.16;;;18.27;74.13
19594;BME280;9944;48.240;16.478;2022-10-16T12:33:21;100304.34;;;18.34;73.33
19594;BME280;9944;48.240;16.478;2022-10-16T12:37:28;100305.22;;;18.34;72.46
19594;BME280;9944;48.240;16.478;2022-10-16T12:41:34;100304.25;;;18.37;72.39
19594;BME280;9944;48.240;16.478;2022-10-16T12:45:41;100310.38;;;18.42;72.62
19594;BME280;9944;48.240;16.478;2022-10-16T12:49:53;100316.53;;;18.44;72.40
19594;BME280;9944;48.240;16.478;2022-10-16T12:54:00;100329.81;;;18.47;72.41
19594;BME280;9944;48.240;16.478;2022-10-16T12:58:16;100321.63;;;18.53;72.01
19594;BME280;9944;48.240;16.478;2022-10-16T13:02:39;100322.31;;;18.60;71.74
19594;BME280;9944;48.240;16.478;2022-10-16T13:06:53;100319.56;;;18.64;71.50
19594;BME280;9944;48.240;16.478;2022-10-16T13:11:05;100322.03;;;18.71;71.34
19594;BME280;9944;48.240;16.478;2022-10-16T13:15:24;100317.63;;;18.69;70.84
19594;BME280;9944;48.240;16.478;2022-10-16T13:19:38;100325.66;;;18.69;70.65
19594;BME280;9944;48.240;16.478;2022-10-16T13:23:48;100316.69;;;18.71;70.26
19594;BME280;9944;48.240;16.478;2022-10-16T13:27:56;100318.59;;;18.67;70.72
19594;BME280;9944;48.240;16.478;2022-10-16T13:32:07;100324.78;;;18.67;70.86
19594;BME280;9944;48.240;16.478;2022-10-16T13:36:22;100333.69;;;18.69;70.70
19594;BME280;9944;48.240;16.478;2022-10-16T13:40:26;100331.03;;;18.68;70.35
19594;BME280;9944;48.240;16.478;2022-10-16T13:44:34;100343.53;;;18.67;70.31
19594;BME280;9944;48.240;16.478;2022-10-16T13:48:38;100337.47;;;18.62;70.13
19594;BME280;9944;48.240;16.478;2022-10-16T13:52:43;100324.00;;;18.64;70.41
19594;BME280;9944;48.240;16.478;2022-10-16T13:56:46;100334.78;;;18.62;69.86
19594;BME280;9944;48.240;16.478;2022-10-16T14:01:05;100328.53;;;18.60;69.79
19594;BME280;9944;48.240;16.478;2022-10-16T14:05:09;100335.66;;;18.61;69.56
19594;BME280;9944;48.240;16.478;2022-10-16T14:09:21;100329.44;;;18.62;70.14
19594;BME280;9944;48.240;16.478;2022-10-16T14:13:31;100334.78;;;18.62;69.13
19594;BME280;9944;48.240;16.478;2022-10-16T14:17:37;100333.81;;;18.65;69.59
19594;BME280;9944;48.240;16.478;2022-10-16T14:21:46;100330.25;;;18.64;68.79
19594;BME280;9944;48.240;16.478;2022-10-16T14:25:50;100324.00;;;18.64;69.52
19594;BME280;9944;48.240;16.478;2022-10-16T14:30:12;100326.75;;;18.62;69.39
19594;BME280;9944;48.240;16.478;2022-10-16T14:34:24;100333.88;;;18.60;69.16
19594;BME280;9944;48.240;16.478;2022-10-16T14:38:29;100332.09;;;18.62;68.77
19594;BME280;9944;48.240;16.478;2022-10-16T14:42:34;100335.66;;;18.61;68.29
19594;BME280;9944;48.240;16.478;2022-10-16T14:46:39;100332.97;;;18.61;68.86
19594;BME280;9944;48.240;16.478;2022-10-16T14:50:43;100342.81;;;18.62;68.62
19594;BME280;9944;48.240;16.478;2022-10-16T14:54:49;100335.66;;;18.61;68.85
19594;BME280;9944;48.240;16.478;2022-10-16T14:58:53;100334.78;;;18.62;69.05
19594;BME280;9944;48.240;16.478;2022-10-16T15:02:57;100343.69;;;18.61;68.65
19594;BME280;9944;48.240;16.478;2022-10-16T15:07:01;100350.84;;;18.61;68.36
19594;BME280;9944;48.240;16.478;2022-10-16T15:11:04;100355.28;;;18.60;68.90
19594;BME280;9944;48.240;16.478;2022-10-16T15:15:36;100353.53;;;18.59;69.11
19594;BME280;9944;48.240;16.478;2022-10-16T15:19:39;100362.56;;;18.55;69.07
19594;BME280;9944;48.240;16.478;2022-10-16T15:23:42;100358.22;;;18.51;69.14
19594;BME280;9944;48.240;16.478;2022-10-16T15:27:46;100363.59;;;18.49;69.04
19594;BME280;9944;48.240;16.478;2022-10-16T15:31:50;100365.44;;;18.47;69.22
19594;BME280;9944;48.240;16.478;2022-10-16T15:35:54;100377.09;;;18.45;69.42
19594;BME280;9944;48.240;16.478;2022-10-16T15:39:57;100368.34;;;18.40;69.25
19594;BME280;9944;48.240;16.478;2022-10-16T15:44:00;100365.81;;;18.34;69.19
19594;BME280;9944;48.240;16.478;2022-10-16T15:48:05;100371.31;;;18.27;69.42
19594;BME280;9944;48.240;16.478;2022-10-16T15:52:08;100376.81;;;18.23;69.87
19594;BME280;9944;48.240;16.478;2022-10-16T15:56:12;100374.25;;;18.18;69.95
19594;BME280;9944;48.240;16.478;2022-10-16T16:00:18;100378.03;;;18.09;69.80
19594;BME280;9944;48.240;16.478;2022-10-16T16:04:24;100375.53;;;18.03;69.91
19594;BME280;9944;48.240;16.478;2022-10-16T16:08:44;100380.19;;;17.95;70.12
19594;BME280;9944;48.240;16.478;2022-10-16T16:12:48;100385.63;;;17.90;70.02
19594;BME280;9944;48.240;16.478;2022-10-16T16:16:53;100392.88;;;17.85;70.24
19594;BME280;9944;48.240;16.478;2022-10-16T16:20:58;100393.03;;;17.79;70.22
19594;BME280;9944;48.240;16.478;2022-10-16T16:25:01;100395.00;;;17.69;70.25
19594;BME280;9944;48.240;16.478;2022-10-16T16:29:04;100395.19;;;17.62;70.66
19594;BME280;9944;48.240;16.478;2022-10-16T16:33:07;100400.66;;;17.55;70.54
19594;BME280;9944;48.240;16.478;2022-10-16T16:37:12;100398.09;;;17.51;70.45
19594;BME280;9944;48.240;16.478;2022-10-16T16:41:16;100402.69;;;17.44;70.52
19594;BME280;9944;48.240;16.478;2022-10-16T16:45:20;100407.38;;;17.34;70.72
19594;BME280;9944;48.240;16.478;2022-10-16T16:49:23;100410.13;;;17.30;71.13
19594;BME280;9944;48.240;16.478;2022-10-16T16:53:28;100424.44;;;17.26;71.17
19594;BME280;9944;48.240;16.478;2022-10-16T16:57:31;100429.06;;;17.17;71.46
19594;BME280;9944;48.240;16.478;2022-10-16T17:01:34;100431.03;;;17.08;71.83
19594;BME280;9944;48.240;16.478;2022-10-16T17:05:37;100427.66;;;16.99;72.07
19594;BME280;9944;48.240;16.478;2022-10-16T17:09:42;100430.41;;;16.95;72.32
19594;BME280;9944;48.240;16.478;2022-10-16T17:13:46;100453.63;;;16.90;72.46
19594;BME280;9944;48.240;16.478;2022-10-16T17:17:55;100456.47;;;16.82;72.68
19594;BME280;9944;48.240;16.478;2022-10-16T17:21:59;100472.53;;;16.76;72.95
19594;BME280;9944;48.240;16.478;2022-10-16T17:26:10;100468.22;;;16.67;73.37
19594;BME280;9944;48.240;16.478;2022-10-16T17:30:14;100473.72;;;16.59;73.43
19594;BME280;9944;48.240;16.478;2022-10-16T17:34:17;100482.75;;;16.51;73.55
19594;BME280;9944;48.240;16.478;2022-10-16T17:38:20;100472.22;;;16.41;73.75
19594;BME280;9944;48.240;16.478;2022-10-16T17:42:25;100463.44;;;16.35;73.79
19594;BME280;9944;48.240;16.478;2022-10-16T17:46:28;100465.38;;;16.28;73.83
19594;BME280;9944;48.240;16.478;2022-10-16T17:50:31;100468.97;;;16.24;73.90
19594;BME280;9944;48.240;16.478;2022-10-16T17:54:34;100475.25;;;16.20;73.75
19594;BME280;9944;48.240;16.478;2022-10-16T17:58:39;100477.94;;;16.18;73.94
19594;BME280;9944;48.240;16.478;2022-10-16T18:02:48;100478.00;;;16.14;73.91
19594;BME280;9944;48.240;16.478;2022-10-16T18:06:52;100481.69;;;16.06;74.08
19594;BME280;9944;48.240;16.478;2022-10-16T18:10:56;100486.19;;;16.01;74.38
19594;BME280;9944;48.240;16.478;2022-10-16T18:15:01;100489.84;;;15.96;74.28
19594;BME280;9944;48.240;16.478;2022-10-16T18:19:04;100500.53;;;15.93;74.39
19594;BME280;9944;48.240;16.478;2022-10-16T18:23:08;100500.53;;;15.91;74.42
19594;BME280;9944;48.240;16.478;2022-10-16T18:27:12;100496.13;;;15.90;74.43
19594;BME280;9944;48.240;16.478;2022-10-16T18:31:16;100497.06;;;15.86;74.58
19594;BME280;9944;48.240;16.478;2022-10-16T18:35:19;100501.53;;;15.81;74.66
19594;BME280;9944;48.240;16.478;2022-10-16T18:39:22;100502.47;;;15.78;74.88
19594;BME280;9944;48.240;16.478;2022-10-16T18:43:26;100505.19;;;15.74;75.13
19594;BME280;9944;48.240;16.478;2022-10-16T18:47:32;100508.78;;;15.73;75.11
19594;BME280;9944;48.240;16.478;2022-10-16T18:51:37;100508.78;;;15.73;75.38
19594;BME280;9944;48.240;16.478;2022-10-16T18:55:41;100514.97;;;15.72;75.42
19594;BME280;9944;48.240;16.478;2022-10-16T18:59:44;100524.78;;;15.69;75.40
19594;BME280;9944;48.240;16.478;2022-10-16T19:03:53;100527.47;;;15.68;75.44
19594;BME280;9944;48.240;16.478;2022-10-16T19:07:56;100526.63;;;15.64;75.64
19594;BME280;9944;48.240;16.478;2022-10-16T19:11:59;100538.16;;;15.62;75.96
19594;BME280;9944;48.240;16.478;2022-10-16T19:16:07;100550.63;;;15.60;75.80
19594;BME280;9944;48.240;16.478;2022-10-16T19:20:22;100549.78;;;15.56;75.84
19594;BME280;9944;48.240;16.478;2022-10-16T19:24:26;100556.03;;;15.55;76.06
19594;BME280;9944;48.240;16.478;2022-10-16T19:28:29;100562.22;;;15.54;76.28
19594;BME280;9944;48.240;16.478;2022-10-16T19:32:32;100564.03;;;15.52;76.29
19594;BME280;9944;48.240;16.478;2022-10-16T19:36:38;100571.16;;;15.50;76.41
19594;BME280;9944;48.240;16.478;2022-10-16T19:40:42;100573.84;;;15.47;76.38
19594;BME280;9944;48.240;16.478;2022-10-16T19:44:45;100588.97;;;15.45;76.46
19594;BME280;9944;48.240;16.478;2022-10-16T19:48:48;100587.22;;;15.41;76.42
19594;BME280;9944;48.240;16.478;2022-10-16T19:52:56;100596.16;;;15.34;76.72
19594;BME280;9944;48.240;16.478;2022-10-16T19:56:59;100604.19;;;15.29;76.97
19594;BME280;9944;48.240;16.478;2022-10-16T20:01:03;100607.75;;;15.26;77.31
19594;BME280;9944;48.240;16.478;2022-10-16T20:05:07;100607.81;;;15.22;77.04
19594;BME280;9944;48.240;16.478;2022-10-16T20:09:12;100611.38;;;15.19;77.36
19594;BME280;9944;48.240;16.478;2022-10-16T20:13:16;100617.66;;;15.15;77.34
19594;BME280;9944;48.240;16.478;2022-10-16T20:17:19;100612.34;;;15.12;77.66
19594;BME280;9944;48.240;16.478;2022-10-16T20:21:24;100612.34;;;15.10;77.54
19594;BME280;9944;48.240;16.478;2022-10-16T20:25:28;100624.81;;;15.07;77.66
19594;BME280;9944;48.240;16.478;2022-10-16T20:29:37;100629.28;;;15.00;77.91
19594;BME280;9944;48.240;16.478;2022-10-16T20:33:40;100623.13;;;14.97;77.97
19594;BME280;9944;48.240;16.478;2022-10-16T20:37:43;100625.81;;;14.89;77.98
19594;BME280;9944;48.240;16.478;2022-10-16T20:41:51;100637.34;;;14.83;78.10
19594;BME280;9944;48.240;16.478;2022-10-16T20:45:58;100638.28;;;14.78;78.62
19594;BME280;9944;48.240;16.478;2022-10-16T20:50:02;100644.50;;;14.75;78.73
19594;BME280;9944;48.240;16.478;2022-10-16T20:54:05;100640.97;;;14.73;79.02
19594;BME280;9944;48.240;16.478;2022-10-16T20:58:10;100642.78;;;14.71;78.94
19594;BME280;9944;48.240;16.478;2022-10-16T21:02:13;100636.59;;;14.66;78.76
19594;BME280;9944;48.240;16.478;2022-10-16T21:06:17;100648.16;;;14.63;78.98
19594;BME280;9944;48.240;16.478;2022-10-16T21:10:20;100647.28;;;14.60;78.91
19594;BME280;9944;48.240;16.478;2022-10-16T21:14:25;100649.97;;;14.56;78.94
19594;BME280;9944;48.240;16.478;2022-10-16T21:18:28;100649.97;;;14.53;79.00
19594;BME280;9944;48.240;16.478;2022-10-16T21:22:31;100659.72;;;14.51;79.12
19594;BME280;9944;48.240;16.478;2022-10-16T21:26:34;100656.22;;;14.49;79.04
19594;BME280;9944;48.240;16.478;2022-10-16T21:30:39;100651.78;;;14.42;79.04